Time;durP1;ratioP1;P1;durP2;ratioP2;P2;SDS_P1;SDS_P2;PMS_P1;PMS_P2;Temp;Humidity;BMP_temperature;BMP_pressure;BME280_temperature;BME280_humidity;BME280_pressure;Samples;Min_cycle;Max_cycle;Signal;HPM_P1;HPM_P2
2023/03/18 00:02:17;;;;;;;20.90;12.40;;;;;;;3.24;51.70;100556.20;131339;1253;107372;-79
2023/03/18 00:05:23;;;;;;;21.00;11.40;;;;;;;3.22;51.76;100555.12;131350;1248;108733;-79
2023/03/18 00:08:29;;;;;;;23.90;12.30;;;;;;;3.21;51.90;100557.95;131228;1254;107523;-77
2023/03/18 00:11:35;;;;;;;21.70;11.80;;;;;;;3.19;51.92;100554.08;131261;1254;107501;-79
2023/03/18 00:14:40;;;;;;;22.40;12.10;;;;;;;3.16;51.88;100554.09;131225;1251;107385;-78
2023/03/18 00:17:48;;;;;;;21.30;11.80;;;;;;;3.15;52.12;100555.00;131221;1252;106045;-77
2023/03/18 00:20:53;;;;;;;21.20;12.10;;;;;;;3.14;52.14;100549.44;131228;1248;106806;-79
2023/03/18 00:23:59;;;;;;;20.50;11.10;;;;;;;3.11;52.20;100546.59;131367;1253;107383;-79
2023/03/18 00:27:05;;;;;;;20.90;11.50;;;;;;;3.10;52.26;100543.55;131269;1253;107591;-78
2023/03/18 00:30:13;;;;;;;22.80;11.80;;;;;;;3.09;52.43;100538.86;131403;1248;107616;-78
2023/03/18 00:33:20;;;;;;;19.50;11.20;;;;;;;3.06;52.29;100536.39;131237;1254;107529;-78
2023/03/18 00:36:25;;;;;;;19.90;11.30;;;;;;;3.06;52.34;100533.27;131080;1251;107551;-79
2023/03/18 00:39:31;;;;;;;20.60;11.20;;;;;;;3.05;52.23;100528.58;131246;1253;107204;-78
2023/03/18 00:42:46;;;;;;;18.80;10.40;;;;;;;3.05;52.39;100527.02;131056;1255;108616;-79
2023/03/18 00:45:52;;;;;;;20.60;10.70;;;;;;;3.05;52.47;100523.80;131200;1253;107537;-79
2023/03/18 00:48:59;;;;;;;20.40;11.20;;;;;;;3.04;52.64;100515.63;131397;1253;107481;-79
2023/03/18 00:52:05;;;;;;;19.50;10.60;;;;;;;3.03;52.37;100518.48;131504;1266;107547;-80
2023/03/18 00:55:11;;;;;;;19.80;10.40;;;;;;;3.04;52.38;100515.99;131189;1256;107529;-78
2023/03/18 00:58:17;;;;;;;20.10;10.30;;;;;;;3.04;52.66;100508.23;131328;1253;107507;-77
2023/03/18 01:01:24;;;;;;;18.50;10.20;;;;;;;3.05;52.59;100511.67;131446;1254;107511;-77
2023/03/18 01:04:30;;;;;;;21.50;10.20;;;;;;;3.05;52.64;100508.34;131175;1256;107081;-79
2023/03/18 01:07:36;;;;;;;18.90;10.00;;;;;;;3.06;52.57;100505.31;131126;1251;107268;-78
2023/03/18 01:10:42;;;;;;;19.40;9.90;;;;;;;3.07;52.83;100501.18;131385;1253;107551;-75
2023/03/18 01:13:49;;;;;;;16.60;9.60;;;;;;;3.06;52.64;100502.29;131354;1254;107593;-78
2023/03/18 01:16:55;;;;;;;17.40;9.50;;;;;;;3.06;52.78;100508.09;131328;1254;108418;-78
2023/03/18 01:20:01;;;;;;;17.40;10.20;;;;;;;3.06;52.78;100499.84;131172;1251;107554;-79
2023/03/18 01:23:08;;;;;;;18.00;10.00;;;;;;;3.07;52.73;100495.59;131064;1256;107518;-77
2023/03/18 01:26:15;;;;;;;17.00;9.70;;;;;;;3.06;52.94;100489.51;131212;1251;107244;-76
2023/03/18 01:29:24;;;;;;;15.90;9.30;;;;;;;3.04;52.85;100487.36;131228;1251;107450;-78
2023/03/18 01:32:29;;;;;;;17.30;9.10;;;;;;;3.02;52.96;100483.95;131296;1252;107558;-77
2023/03/18 01:35:36;;;;;;;17.60;9.20;;;;;;;3.01;52.86;100478.02;131297;1252;107517;-78
2023/03/18 01:38:42;;;;;;;17.00;9.50;;;;;;;3.00;52.91;100470.00;131302;1253;107414;-78
2023/03/18 01:41:50;;;;;;;16.10;8.90;;;;;;;2.98;53.05;100470.11;131268;1252;107442;-79
2023/03/18 01:45:18;;;;;;;18.50;9.30;;;;;;;2.97;52.76;100468.13;131070;1256;107666;-78
2023/03/18 01:48:27;;;;;;;15.90;9.50;;;;;;;2.98;52.90;100467.17;131183;1253;107629;-77
2023/03/18 01:51:39;;;;;;;16.40;8.80;;;;;;;2.96;52.96;100466.55;131202;1251;107552;-77
2023/03/18 01:54:52;;;;;;;16.20;9.00;;;;;;;2.95;53.09;100469.27;131368;1251;108696;-79
2023/03/18 01:57:58;;;;;;;15.80;9.10;;;;;;;2.93;53.14;100466.06;131370;1252;105450;-76
2023/03/18 02:01:08;;;;;;;14.40;8.40;;;;;;;2.92;53.27;100464.71;131290;1256;107310;-79
2023/03/18 02:04:16;;;;;;;15.40;8.90;;;;;;;2.92;52.97;100467.04;131351;1253;107507;-78
2023/03/18 02:07:25;;;;;;;16.40;8.80;;;;;;;2.91;52.96;100470.25;131399;1254;106550;-78
2023/03/18 02:10:32;;;;;;;14.70;8.40;;;;;;;2.90;52.93;100466.59;131332;1255;107532;-76
2023/03/18 02:13:41;;;;;;;16.10;8.70;;;;;;;2.89;52.98;100461.42;131389;1253;107614;-77
2023/03/18 02:16:52;;;;;;;14.80;8.90;;;;;;;2.87;52.88;100464.17;131253;1254;154090;-78
2023/03/18 02:20:09;;;;;;;14.80;8.10;;;;;;;2.86;53.13;100467.77;131160;1249;108788;-78
2023/03/18 02:23:24;;;;;;;15.00;8.60;;;;;;;2.85;53.20;100465.20;131357;1248;107275;-77
2023/03/18 02:26:36;;;;;;;14.90;8.30;;;;;;;2.82;53.20;100457.15;131289;1254;107524;-78
2023/03/18 02:29:42;;;;;;;;;;;;;;;2.80;53.14;100455.32;131137;1253;107467;-79
2023/03/18 02:32:52;;;;;;;12.60;7.60;;;;;;;2.78;53.24;100456.66;131342;1253;107531;-80
2023/03/18 02:36:02;;;;;;;13.20;7.60;;;;;;;2.75;53.20;100450.88;131412;1253;107607;-78
2023/03/18 02:39:12;;;;;;;16.10;8.00;;;;;;;2.72;53.39;100448.22;131292;1261;107466;-78
2023/03/18 02:42:30;;;;;;;17.00;8.40;;;;;;;2.70;53.25;100446.77;131249;1253;107253;-79
2023/03/18 02:45:44;;;;;;;15.70;8.20;;;;;;;2.69;53.35;100445.42;131360;1248;108805;-80
2023/03/18 02:48:53;;;;;;;17.50;8.30;;;;;;;2.69;53.59;100440.20;131197;1253;107530;-80
2023/03/18 02:51:59;;;;;;;12.20;7.80;;;;;;;2.66;53.33;100438.42;131157;1248;108482;-78
2023/03/18 02:55:06;;;;;;;13.50;7.60;;;;;;;2.66;53.39;100438.12;131385;1254;105405;-79
2023/03/18 02:58:14;;;;;;;14.00;7.60;;;;;;;2.63;53.40;100436.34;131400;1253;107811;-79
2023/03/18 03:01:21;;;;;;;13.80;7.70;;;;;;;2.62;53.26;100439.76;131372;1253;107509;-79
2023/03/18 03:04:27;;;;;;;13.60;7.60;;;;;;;2.62;53.49;100437.99;131480;1253;107543;-78
2023/03/18 03:07:33;;;;;;;13.90;8.00;;;;;;;2.62;53.33;100442.25;131188;1251;107439;-78
2023/03/18 03:10:43;;;;;;;13.00;7.80;;;;;;;2.61;53.38;100441.06;131308;1254;106370;-79
2023/03/18 03:13:49;;;;;;;15.00;7.80;;;;;;;2.60;53.45;100441.48;131055;1255;107494;-78
2023/03/18 03:16:55;;;;;;;17.20;8.40;;;;;;;2.59;53.43;100438.35;131182;1253;107438;-78
2023/03/18 03:20:02;;;;;;;15.20;8.50;;;;;;;2.57;53.57;100441.30;131229;1253;107433;-77
2023/03/18 03:23:10;;;;;;;14.50;7.20;;;;;;;2.58;53.58;100445.14;131165;1256;107247;-79
2023/03/18 03:26:17;;;;;;;14.90;7.40;;;;;;;2.57;53.48;100447.48;131238;1255;106487;-79
2023/03/18 03:29:22;;;;;;;20.80;7.60;;;;;;;2.56;53.52;100452.63;131151;1256;106816;-78
2023/03/18 03:32:28;;;;;;;13.50;7.90;;;;;;;2.56;53.43;100456.30;131290;1253;107535;-79
2023/03/18 03:35:35;;;;;;;13.60;6.80;;;;;;;2.55;53.47;100460.36;131131;1250;107443;-75
2023/03/18 03:38:42;;;;;;;16.50;7.50;;;;;;;2.54;53.56;100457.11;131113;1255;107561;-78
2023/03/18 03:41:47;;;;;;;14.30;7.40;;;;;;;2.52;53.61;100458.11;131294;1251;106487;-76
2023/03/18 03:44:54;;;;;;;11.50;7.00;;;;;;;2.50;53.53;100460.87;131384;1254;107480;-76
2023/03/18 03:48:00;;;;;;;14.70;7.10;;;;;;;2.49;53.64;100457.27;131272;1256;107468;-78
2023/03/18 03:51:07;;;;;;;15.50;7.30;;;;;;;2.48;53.47;100459.25;131498;1253;107313;-77
2023/03/18 03:54:14;;;;;;;13.80;7.20;;;;;;;2.46;53.63;100457.08;131243;1256;105929;-76
2023/03/18 03:57:22;;;;;;;13.60;7.50;;;;;;;2.45;53.51;100458.92;131215;1253;107472;-79
2023/03/18 04:00:29;;;;;;;12.40;6.80;;;;;;;2.44;53.73;100456.52;131073;1255;107480;-79
2023/03/18 04:03:35;;;;;;;14.00;7.20;;;;;;;2.41;53.65;100455.29;131363;1250;107284;-79
2023/03/18 04:06:46;;;;;;;13.30;7.20;;;;;;;2.38;53.61;100458.48;131377;1253;107550;-78
2023/03/18 04:09:54;;;;;;;13.60;6.60;;;;;;;2.36;53.59;100453.45;131343;1253;108008;-77
2023/03/18 04:13:02;;;;;;;13.00;6.60;;;;;;;2.36;53.72;100451.06;131346;1253;107524;-77
2023/03/18 04:16:08;;;;;;;12.40;6.30;;;;;;;2.33;53.48;100454.19;131194;1251;107219;-76
2023/03/18 04:19:17;;;;;;;12.10;6.20;;;;;;;2.31;53.67;100455.02;131421;1254;108118;-78
2023/03/18 04:22:23;;;;;;;10.50;6.30;;;;;;;2.29;53.65;100450.58;131225;1254;107561;-77
2023/03/18 04:25:29;;;;;;;11.70;6.10;;;;;;;2.28;53.60;100453.63;131051;1253;107542;-78
2023/03/18 04:28:35;;;;;;;12.50;6.30;;;;;;;2.27;53.56;100454.77;131132;1254;107442;-77
2023/03/18 04:31:43;;;;;;;11.80;6.40;;;;;;;2.26;53.59;100446.79;131040;1253;107469;-78
2023/03/18 04:34:49;;;;;;;11.90;6.50;;;;;;;2.24;53.50;100449.31;131161;1253;107394;-80
2023/03/18 04:37:55;;;;;;;11.30;6.10;;;;;;;2.23;53.65;100448.15;131299;1257;107472;-77
2023/03/18 04:41:01;;;;;;;10.60;6.10;;;;;;;2.22;53.64;100448.95;131284;1253;107446;-79
2023/03/18 04:44:08;;;;;;;9.50;6.10;;;;;;;2.22;53.52;100453.16;131083;1252;107380;-81
2023/03/18 04:47:24;;;;;;;13.40;6.30;;;;;;;2.22;53.62;100452.83;131224;1253;106552;-79
2023/03/18 04:50:31;;;;;;;11.40;6.00;;;;;;;2.21;53.65;100448.31;131165;1251;107604;-78
2023/03/18 04:53:37;;;;;;;11.50;6.20;;;;;;;2.22;53.64;100449.10;131201;1262;107548;-80
2023/03/18 04:56:44;;;;;;;11.60;6.20;;;;;;;2.23;53.78;100450.61;131479;1261;107592;-77
2023/03/18 04:59:49;;;;;;;12.20;6.50;;;;;;;2.24;53.62;100452.33;131317;1255;107362;-77
2023/03/18 05:02:55;;;;;;;14.50;7.20;;;;;;;2.25;53.91;100450.89;131358;1251;107577;-76
2023/03/18 05:06:02;;;;;;;12.10;7.20;;;;;;;2.27;53.78;100451.96;131347;1253;107640;-77
2023/03/18 05:09:16;;;;;;;13.30;7.20;;;;;;;2.30;53.84;100455.81;131368;1263;107591;-77
2023/03/18 05:12:25;;;;;;;11.40;6.60;;;;;;;2.32;53.78;100454.42;131252;1253;107409;-80
2023/03/18 05:15:31;;;;;;;10.40;6.10;;;;;;;2.35;53.89;100458.27;131318;1254;108723;-77
2023/03/18 05:18:38;;;;;;;11.70;6.00;;;;;;;2.39;53.78;100454.75;131182;1254;108735;-78
2023/03/18 05:21:45;;;;;;;10.40;6.00;;;;;;;2.43;53.86;100457.84;131394;1251;107505;-78
2023/03/18 05:24:51;;;;;;;11.80;6.90;;;;;;;2.47;53.80;100463.34;131481;1256;107382;-78
2023/03/18 05:27:57;;;;;;;12.30;6.20;;;;;;;2.54;53.91;100462.39;131313;1252;106457;-78
2023/03/18 05:31:08;;;;;;;;;;;;;;;2.61;53.89;100461.10;131311;1255;107522;-78
2023/03/18 05:34:16;;;;;;;10.40;5.70;;;;;;;2.66;53.89;100466.38;131375;1253;107494;-78
2023/03/18 05:37:22;;;;;;;9.40;6.10;;;;;;;2.71;53.88;100460.40;131209;1253;107452;-78
2023/03/18 05:40:36;;;;;;;11.80;6.50;;;;;;;2.79;53.88;100462.79;131440;1261;108600;-78
2023/03/18 05:43:49;;;;;;;10.40;5.90;;;;;;;2.84;53.77;100467.56;131229;1253;107462;-77
2023/03/18 05:46:56;;;;;;;10.60;5.70;;;;;;;2.87;53.69;100466.64;131305;1253;107967;-77
2023/03/18 05:50:34;;;;;;;10.60;6.00;;;;;;;2.95;53.72;100465.74;131294;1249;107504;-77
2023/03/18 05:53:44;;;;;;;9.40;5.70;;;;;;;3.02;53.71;100462.36;131351;1253;107751;-77
2023/03/18 05:56:58;;;;;;;10.70;6.10;;;;;;;3.07;53.46;100468.50;131203;1254;107424;-79
2023/03/18 06:00:05;;;;;;;11.10;6.90;;;;;;;3.14;53.71;100469.09;131162;1253;107492;-77
2023/03/18 06:03:24;;;;;;;24.10;15.20;;;;;;;3.22;53.66;100471.20;131226;1253;107440;-78
2023/03/18 06:06:29;;;;;;;17.70;10.40;;;;;;;3.29;53.52;100477.27;131208;1252;107596;-78
2023/03/18 06:09:35;;;;;;;16.10;9.30;;;;;;;3.33;53.44;100479.09;131238;1260;107487;-77
2023/03/18 06:12:43;;;;;;;13.30;7.50;;;;;;;3.35;53.47;100478.64;131320;1254;107518;-74
2023/03/18 06:15:48;;;;;;;17.20;10.30;;;;;;;3.40;53.47;100480.41;131314;1254;107517;-77
2023/03/18 06:18:54;;;;;;;21.00;11.90;;;;;;;3.43;53.67;100474.40;131166;1257;107398;-77
2023/03/18 06:22:00;;;;;;;18.40;10.80;;;;;;;3.47;53.61;100471.31;131166;1263;108788;-77
2023/03/18 06:25:07;;;;;;;14.90;8.20;;;;;;;3.55;53.43;100475.75;131281;1253;107500;-75
2023/03/18 06:28:15;;;;;;;16.80;10.40;;;;;;;3.61;53.57;100476.57;131252;1253;108758;-78
2023/03/18 06:31:21;;;;;;;15.20;7.70;;;;;;;3.68;53.54;100477.86;131203;1263;107215;-75
2023/03/18 06:34:27;;;;;;;12.70;6.50;;;;;;;3.75;53.49;100475.27;131189;1253;107458;-77
2023/03/18 06:37:34;;;;;;;18.50;11.20;;;;;;;3.82;53.46;100477.61;131055;1263;108679;-78
2023/03/18 06:40:40;;;;;;;21.90;11.20;;;;;;;3.89;53.35;100478.90;131204;1256;107517;-76
2023/03/18 06:43:49;;;;;;;16.00;9.10;;;;;;;3.98;53.31;100483.75;131247;1253;107521;-78
2023/03/18 06:46:55;;;;;;;13.40;7.40;;;;;;;4.08;53.29;100483.55;131115;1264;108796;-78
2023/03/18 06:50:01;;;;;;;12.60;8.00;;;;;;;4.17;53.18;100486.30;131040;1257;107531;-78
2023/03/18 06:53:14;;;;;;;23.90;14.30;;;;;;;4.26;53.16;100488.86;131174;1253;107604;-77
2023/03/18 06:56:22;;;;;;;18.30;10.50;;;;;;;4.37;53.13;100491.64;131192;1253;107518;-76
2023/03/18 06:59:37;;;;;;;12.20;7.00;;;;;;;4.48;53.03;100489.59;131144;1254;108659;-77
2023/03/18 07:02:43;;;;;;;21.20;12.20;;;;;;;4.61;52.85;100489.36;131023;1254;108683;-78
2023/03/18 07:05:50;;;;;;;17.90;9.10;;;;;;;4.76;52.84;100491.16;131069;1263;107728;-73
2023/03/18 07:08:57;;;;;;;13.30;7.50;;;;;;;4.89;52.93;100495.99;131274;1261;107493;-74
2023/03/18 07:12:05;;;;;;;11.00;7.20;;;;;;;5.03;52.31;100497.65;131223;1254;107477;-73
2023/03/18 07:15:12;;;;;;;11.10;6.70;;;;;;;5.18;52.33;100494.27;131361;1248;107353;-74
2023/03/18 07:18:18;;;;;;;9.70;6.80;;;;;;;5.30;52.57;100501.66;131372;1251;107424;-74
2023/03/18 07:21:25;;;;;;;10.80;6.70;;;;;;;5.45;52.25;100496.18;131499;1255;107519;-74
2023/03/18 07:24:30;;;;;;;12.90;7.60;;;;;;;5.57;52.20;100494.40;131294;1254;107512;-73
2023/03/18 07:27:36;;;;;;;9.80;6.10;;;;;;;5.65;52.23;100495.89;131191;1254;107410;-74
2023/03/18 07:30:42;;;;;;;11.10;6.90;;;;;;;5.77;52.09;100499.05;131265;1254;107499;-75
2023/03/18 07:33:47;;;;;;;14.50;6.90;;;;;;;5.90;52.27;100501.41;131104;1248;107540;-82
2023/03/18 07:36:54;;;;;;;10.80;7.10;;;;;;;6.02;51.84;100499.85;131513;1253;107553;-79
2023/03/18 07:40:00;;;;;;;20.60;6.90;;;;;;;6.14;51.93;100499.98;131472;1254;107415;-79
2023/03/18 07:43:06;;;;;;;14.30;8.10;;;;;;;6.27;51.95;100501.27;131574;1250;107513;-77
2023/03/18 07:46:11;;;;;;;11.30;7.00;;;;;;;6.41;51.51;100506.05;131399;1254;108195;-78
2023/03/18 07:49:17;;;;;;;10.80;7.10;;;;;;;6.51;51.38;100508.07;131188;1251;107546;-81
2023/03/18 07:52:23;;;;;;;16.60;10.10;;;;;;;6.60;51.69;100505.59;131282;1261;105557;-79
2023/03/18 07:55:29;;;;;;;16.30;9.00;;;;;;;6.69;51.07;100502.24;131422;1254;107564;-82
2023/03/18 07:58:34;;;;;;;13.10;6.80;;;;;;;6.74;50.83;100499.05;131419;1254;107328;-81
2023/03/18 08:01:40;;;;;;;12.10;6.90;;;;;;;6.77;50.57;100495.80;131324;1259;107348;-81
2023/03/18 08:04:45;;;;;;;10.70;6.40;;;;;;;6.85;51.12;100494.95;131548;1254;107385;-80
2023/03/18 08:07:51;;;;;;;9.70;5.70;;;;;;;6.91;49.87;100495.86;131416;1251;107605;-78
2023/03/18 08:11:01;;;;;;;10.20;6.30;;;;;;;6.92;50.35;100494.23;131387;1253;107468;-80
2023/03/18 08:14:06;;;;;;;10.60;6.40;;;;;;;6.99;50.37;100492.95;131088;1258;107230;-79
2023/03/18 08:17:12;;;;;;;9.10;5.70;;;;;;;7.07;50.50;100492.67;131095;1251;108521;-80
2023/03/18 08:20:18;;;;;;;15.50;8.70;;;;;;;7.13;50.14;100487.77;131150;1251;106557;-83
2023/03/18 08:23:24;;;;;;;9.50;5.80;;;;;;;7.13;49.77;100483.32;131146;1253;107606;-82
2023/03/18 08:26:30;;;;;;;11.60;6.20;;;;;;;7.18;50.10;100483.61;131235;1253;107469;-82
2023/03/18 08:29:35;;;;;;;12.80;7.00;;;;;;;7.27;50.21;100478.29;131164;1254;106560;-80
2023/03/18 08:32:41;;;;;;;8.60;5.50;;;;;;;7.36;50.21;100477.07;131189;1253;107504;-80
2023/03/18 08:35:50;;;;;;;23.60;10.50;;;;;;;7.41;50.06;100473.74;131007;1251;107463;-78
2023/03/18 08:38:56;;;;;;;19.70;10.10;;;;;;;7.48;50.02;100471.62;131232;1255;107603;-79
2023/03/18 08:42:04;;;;;;;38.00;10.10;;;;;;;7.53;49.50;100468.51;131187;1254;107448;-81
2023/03/18 08:45:12;;;;;;;11.30;6.90;;;;;;;7.59;49.75;100466.85;131133;1258;107449;-80
2023/03/18 08:48:17;;;;;;;13.70;8.20;;;;;;;7.65;49.66;100465.08;131386;1251;107366;-80
2023/03/18 08:51:23;;;;;;;11.20;7.40;;;;;;;7.72;49.08;100463.05;131311;1248;107509;-78
2023/03/18 08:54:29;;;;;;;17.70;12.70;;;;;;;7.80;49.63;100461.71;131327;1248;107374;-82
2023/03/18 08:57:36;;;;;;;14.00;9.00;;;;;;;7.85;49.26;100459.42;131351;1254;107548;-81
2023/03/18 09:00:42;;;;;;;15.60;10.10;;;;;;;7.93;49.57;100456.52;131356;1248;107217;-79
2023/03/18 09:03:48;;;;;;;14.40;9.50;;;;;;;8.00;49.36;100459.75;131220;1254;107649;-79
2023/03/18 09:06:53;;;;;;;19.00;11.20;;;;;;;8.08;49.45;100454.67;131205;1255;107482;-80
2023/03/18 09:09:59;;;;;;;17.20;9.30;;;;;;;8.14;49.19;100457.67;131392;1253;105774;-76
2023/03/18 09:13:04;;;;;;;63.30;21.00;;;;;;;8.18;49.30;100455.02;131449;1261;107290;-80
2023/03/18 09:16:11;;;;;;;29.10;12.90;;;;;;;8.26;48.89;100459.87;131328;1253;107625;-76
2023/03/18 09:19:16;;;;;;;14.70;8.70;;;;;;;8.33;48.31;100453.80;131630;1253;107369;-79
2023/03/18 09:22:23;;;;;;;21.70;10.80;;;;;;;8.32;48.87;100453.84;131601;1254;106685;-79
2023/03/18 09:25:28;;;;;;;22.90;11.80;;;;;;;8.35;48.94;100455.55;131685;1253;106081;-79
2023/03/18 09:28:34;;;;;;;24.80;13.20;;;;;;;8.41;48.74;100450.27;131409;1251;107345;-80
2023/03/18 09:31:40;;;;;;;15.80;9.90;;;;;;;8.42;48.29;100446.80;131516;1252;109407;-79
2023/03/18 09:34:46;;;;;;;11.00;7.20;;;;;;;8.44;48.43;100445.16;131292;1248;107353;-80
2023/03/18 09:37:52;;;;;;;17.90;10.40;;;;;;;8.52;48.60;100442.19;131309;1254;107497;-79
2023/03/18 09:41:07;;;;;;;18.00;11.40;;;;;;;8.60;48.36;100437.23;131530;1255;107520;-77
2023/03/18 09:44:21;;;;;;;13.50;7.40;;;;;;;8.70;48.52;100442.37;131440;1262;107436;-78
2023/03/18 09:47:48;;;;;;;14.00;7.80;;;;;;;8.81;48.10;100443.36;131411;1261;107368;-78
2023/03/18 09:51:04;;;;;;;11.70;7.60;;;;;;;8.92;48.21;100439.56;131340;1252;107359;-79
2023/03/18 09:54:16;;;;;;;11.80;7.30;;;;;;;9.03;48.12;100436.42;131424;1254;108773;-80
2023/03/18 09:57:26;;;;;;;13.00;6.80;;;;;;;9.17;48.16;100436.42;131393;1251;107363;-80
2023/03/18 10:00:36;;;;;;;10.00;6.30;;;;;;;9.28;47.80;100440.23;131493;1248;107214;-80
2023/03/18 10:03:47;;;;;;;10.90;7.20;;;;;;;9.35;47.95;100427.81;131351;1248;107287;-79
2023/03/18 10:06:59;;;;;;;10.50;6.40;;;;;;;9.45;48.00;100424.77;131272;1254;107404;-81
2023/03/18 10:10:09;;;;;;;11.90;7.20;;;;;;;9.54;47.60;100425.08;131521;1253;107703;-80
2023/03/18 10:13:21;;;;;;;14.40;8.30;;;;;;;9.63;47.76;100424.39;131286;1253;107530;-80
2023/03/18 10:16:30;;;;;;;12.70;7.70;;;;;;;9.71;48.07;100422.54;131456;1251;107500;-78
2023/03/18 10:19:37;;;;;;;36.80;14.20;;;;;;;9.81;47.78;100417.34;131238;1261;106414;-80
2023/03/18 10:22:56;;;;;;;19.40;9.00;;;;;;;9.91;46.95;100412.16;131513;1253;107663;-78
2023/03/18 10:26:11;;;;;;;11.80;7.50;;;;;;;9.98;47.19;100414.02;131408;1253;107623;-79
2023/03/18 10:29:39;;;;;;;11.60;7.30;;;;;;;10.02;46.53;100405.95;131473;1251;107454;-79
2023/03/18 10:32:53;;;;;;;11.60;6.00;;;;;;;10.08;47.21;100409.32;131483;1251;107471;-79
2023/03/18 10:36:06;;;;;;;13.60;7.70;;;;;;;10.14;46.91;100399.54;131253;1254;107392;-82
2023/03/18 10:39:16;;;;;;;11.30;6.30;;;;;;;10.19;46.94;100392.74;131304;1253;107503;-79
2023/03/18 10:42:26;;;;;;;10.70;6.40;;;;;;;10.28;46.66;100392.17;131459;1254;108638;-79
2023/03/18 10:45:33;;;;;;;11.30;6.20;;;;;;;10.33;46.75;100385.50;131256;1263;107355;-79
2023/03/18 10:48:42;;;;;;;9.40;6.00;;;;;;;10.36;46.53;100380.48;131128;1254;108536;-80
2023/03/18 10:51:53;;;;;;;10.40;6.20;;;;;;;10.40;46.23;100378.19;131120;1251;107451;-81
2023/03/18 10:54:59;;;;;;;11.40;6.20;;;;;;;10.46;46.57;100379.20;131153;1253;107495;-81
2023/03/18 10:58:16;;;;;;;9.40;6.20;;;;;;;10.52;46.55;100380.36;131241;1253;107508;-81
2023/03/18 11:01:24;;;;;;;8.90;5.80;;;;;;;10.63;46.59;100376.54;131126;1254;106461;-79
2023/03/18 11:04:31;;;;;;;10.70;5.90;;;;;;;10.73;46.34;100382.14;131338;1252;106545;-79
2023/03/18 11:07:57;;;;;;;8.80;5.90;;;;;;;10.78;45.79;100371.86;131442;1261;107401;-80
2023/03/18 11:11:22;;;;;;;9.20;6.30;;;;;;;10.85;45.88;100367.61;131631;1251;106793;-82
2023/03/18 11:14:31;;;;;;;9.50;5.90;;;;;;;10.92;45.95;100360.81;131531;1251;107491;-79
2023/03/18 11:17:39;;;;;;;9.20;5.80;;;;;;;11.01;45.55;100362.09;131527;1251;107458;-79
2023/03/18 11:20:48;;;;;;;9.50;5.90;;;;;;;11.09;45.93;100357.70;131586;1251;107331;-79
2023/03/18 11:24:19;;;;;;;9.40;6.00;;;;;;;11.15;44.82;100355.02;131618;1248;107521;-79
2023/03/18 11:27:33;;;;;;;11.70;6.40;;;;;;;11.14;45.20;100352.03;131530;1254;107688;-79
2023/03/18 11:30:50;;;;;;;9.70;6.00;;;;;;;11.17;44.76;100351.98;131513;1250;107573;-79
2023/03/18 11:33:59;;;;;;;9.70;6.00;;;;;;;11.20;44.90;100346.84;131650;1248;107340;-79
2023/03/18 11:37:07;;;;;;;9.00;5.70;;;;;;;11.24;44.47;100343.19;131454;1254;107511;-79
2023/03/18 11:40:24;;;;;;;10.00;5.80;;;;;;;11.30;45.00;100340.66;131564;1254;107210;-79
2023/03/18 11:43:30;;;;;;;19.70;9.40;;;;;;;11.34;44.74;100333.15;131403;1254;107451;-82
2023/03/18 11:46:39;;;;;;;12.60;6.70;;;;;;;11.37;44.26;100327.42;131395;1253;107450;-80
2023/03/18 11:49:44;;;;;;;10.40;6.60;;;;;;;11.44;44.28;100322.33;131393;1253;107867;-80
2023/03/18 11:52:57;;;;;;;18.30;9.40;;;;;;;11.52;44.67;100324.11;131400;1248;108635;-80
2023/03/18 11:56:08;;;;;;;;;;;;;;;11.60;43.71;100323.20;131534;1252;106257;-79
2023/03/18 11:59:27;;;;;;;12.40;6.40;;;;;;;11.69;44.15;100317.46;131576;1248;107236;-79
2023/03/18 12:02:48;;;;;;;9.60;5.80;;;;;;;11.78;44.28;100312.16;131417;1254;107479;-81
2023/03/18 12:06:31;;;;;;;8.50;5.50;;;;;;;11.88;43.65;100311.49;131580;1254;107372;-80
2023/03/18 12:09:47;;;;;;;8.50;5.20;;;;;;;11.96;43.72;100308.38;131408;1253;107557;-80
2023/03/18 12:13:18;;;;;;;9.00;5.80;;;;;;;12.03;44.00;100306.42;131669;1252;107672;-80
2023/03/18 12:16:40;;;;;;;10.10;6.00;;;;;;;12.10;43.83;100303.73;131789;1248;107436;-81
2023/03/18 12:20:05;;;;;;;8.20;5.40;;;;;;;12.11;43.15;100298.14;133440;1248;108410;-80
2023/03/18 12:23:36;;;;;;;12.80;6.90;;;;;;;12.10;43.63;100297.86;131303;1258;107260;-80
2023/03/18 12:26:51;;;;;;;13.30;8.20;;;;;;;12.13;43.98;100291.98;131355;1254;107374;-81
2023/03/18 12:30:13;;;;;;;17.90;9.60;;;;;;;12.19;44.10;100294.58;131271;1254;107357;-80
2023/03/18 12:33:32;;;;;;;11.50;6.50;;;;;;;12.24;43.53;100294.77;131254;1248;107810;-80
2023/03/18 12:36:53;;;;;;;11.00;7.40;;;;;;;12.29;43.73;100291.63;131309;1248;107876;-80
2023/03/18 12:40:24;;;;;;;11.90;7.30;;;;;;;12.34;43.95;100287.83;131474;1248;109219;-80
2023/03/18 12:43:45;;;;;;;12.60;8.10;;;;;;;12.41;43.98;100289.78;131306;1253;107127;-80
2023/03/18 12:46:57;;;;;;;11.20;8.10;;;;;;;12.51;43.62;100286.30;131486;1254;107382;-81
2023/03/18 12:50:06;;;;;;;19.10;12.20;;;;;;;12.64;43.65;100284.30;131452;1253;107509;-80
2023/03/18 12:53:17;;;;;;;12.70;8.00;;;;;;;12.71;43.62;100276.58;131374;1254;107259;-80
2023/03/18 12:56:26;;;;;;;16.30;10.20;;;;;;;12.80;43.46;100270.09;131523;1251;107491;-80
2023/03/18 12:59:38;;;;;;;13.50;9.00;;;;;;;12.86;43.40;100270.66;131333;1254;107366;-80
2023/03/18 13:02:52;;;;;;;10.10;7.00;;;;;;;12.91;42.98;100265.39;131289;1253;107629;-79
2023/03/18 13:06:04;;;;;;;12.10;7.40;;;;;;;12.91;43.00;100265.03;131426;1253;107258;-80
2023/03/18 13:09:19;;;;;;;13.20;8.00;;;;;;;12.88;43.14;100265.05;131439;1254;107220;-79
2023/03/18 13:12:28;;;;;;;11.30;7.80;;;;;;;12.85;43.17;100260.35;131436;1261;107561;-80
2023/03/18 13:15:35;;;;;;;14.40;8.60;;;;;;;12.80;42.68;100258.97;131277;1253;106677;-79
2023/03/18 13:18:44;;;;;;;15.10;8.40;;;;;;;12.75;42.61;100252.92;131420;1253;107588;-81
2023/03/18 13:21:56;;;;;;;13.90;8.10;;;;;;;12.70;42.47;100243.82;131384;1253;108735;-79
2023/03/18 13:25:05;;;;;;;;;;;;;;;12.65;42.55;100237.95;131477;1253;107369;-80
2023/03/18 13:28:27;;;;;;;12.30;7.30;;;;;;;12.61;42.79;100237.46;131435;1253;107442;-80
2023/03/18 13:31:44;;;;;;;12.00;7.10;;;;;;;12.61;42.94;100240.34;131288;1252;107432;-79
2023/03/18 13:35:09;;;;;;;12.70;7.90;;;;;;;12.65;43.12;100233.70;131289;1252;107277;-80
2023/03/18 13:38:38;;;;;;;12.20;7.60;;;;;;;12.66;42.77;100231.23;131290;1248;107252;-80
2023/03/18 13:42:18;;;;;;;11.20;6.30;;;;;;;12.70;42.83;100226.91;131704;1253;107428;-79
2023/03/18 13:45:31;;;;;;;11.90;6.30;;;;;;;12.67;42.78;100226.27;131436;1253;107370;-77
2023/03/18 13:48:40;;;;;;;9.20;6.10;;;;;;;12.65;42.83;100224.91;131454;1253;107497;-81
2023/03/18 13:51:59;;;;;;;10.90;6.40;;;;;;;12.67;42.94;100223.22;131187;1253;107482;-79
2023/03/18 13:55:12;;;;;;;10.30;6.30;;;;;;;12.71;42.84;100228.70;131232;1253;107602;-79
2023/03/18 13:58:24;;;;;;;8.70;5.90;;;;;;;12.72;42.07;100226.44;131220;1254;107375;-78
2023/03/18 14:01:34;;;;;;;11.80;6.60;;;;;;;12.73;42.66;100228.84;131413;1254;108487;-79
2023/03/18 14:04:48;;;;;;;10.20;6.40;;;;;;;12.74;42.43;100229.64;131411;1258;107204;-78
2023/03/18 14:07:56;;;;;;;9.20;6.30;;;;;;;12.74;42.37;100231.02;131377;1261;107500;-81
2023/03/18 14:11:49;;;;;;;11.40;6.40;;;;;;;12.73;42.43;100227.27;131328;1253;107340;-78
2023/03/18 14:15:04;;;;;;;13.10;7.00;;;;;;;12.72;42.59;100228.58;131177;1253;199312;-76
2023/03/18 14:18:25;;;;;;;13.70;8.30;;;;;;;12.71;42.52;100222.50;131217;1253;106614;-76
2023/03/18 14:21:33;;;;;;;21.40;12.60;;;;;;;12.71;42.58;100224.64;131370;1250;106426;-74